createdAt,value
2018-07-08T00:00:03.853Z,5.28
2018-07-08T00:02:31.360Z,5.10
2018-07-08T00:04:59.181Z,5.70
2018-07-08T00:07:26.571Z,4.10
2018-07-08T00:09:54.032Z,4.47
2018-07-08T00:12:21.792Z,4.62
2018-07-08T00:27:50.522Z,4.40
2018-07-08T00:30:18.588Z,4.50
2018-07-08T00:32:46.893Z,4.28
2018-07-08T00:35:18.527Z,4.35
2018-07-08T00:37:45.973Z,4.15
2018-07-08T00:40:14.063Z,4.65
2018-07-08T00:42:41.562Z,4.20
2018-07-08T00:45:08.982Z,4.40
2018-07-08T00:47:36.471Z,4.30
2018-07-08T00:50:04.167Z,3.98
2018-07-08T00:52:35.618Z,4.20
2018-07-08T00:55:03.146Z,4.45
2018-07-08T00:57:30.799Z,3.75
2018-07-08T00:59:58.838Z,4.47
2018-07-08T01:02:26.278Z,4.35
2018-07-08T01:04:54.164Z,3.95
2018-07-08T01:07:21.576Z,3.98
2018-07-08T01:09:48.970Z,4.17
2018-07-08T01:12:20.663Z,3.70
2018-07-08T01:14:48.061Z,4.50
2018-07-08T01:17:15.470Z,4.05
2018-07-08T01:19:42.949Z,4.75
2018-07-08T01:22:14.840Z,4.65
2018-07-08T01:24:42.952Z,3.95
2018-07-08T01:27:10.336Z,4.60
2018-07-08T01:29:37.855Z,4.50
2018-07-08T01:32:05.284Z,4.22
2018-07-08T01:34:32.734Z,5.55
2018-07-08T01:37:00.590Z,5.30
2018-07-08T01:39:28.580Z,5.30
2018-07-08T01:42:00.673Z,4.00
2018-07-08T01:44:28.099Z,5.37
2018-07-08T01:46:55.555Z,5.50
2018-07-08T01:49:23.580Z,5.62
2018-07-08T01:51:51.598Z,5.50
2018-07-08T02:04:04.039Z,5.35
2018-07-08T02:06:31.528Z,7.22
2018-07-08T02:08:59.020Z,5.10
2018-07-08T02:11:26.435Z,5.75
2018-07-08T02:13:54.567Z,5.40
2018-07-08T02:16:22.146Z,6.10
2018-07-08T02:18:49.980Z,5.35
2018-07-08T02:21:17.439Z,4.95
2018-07-08T02:23:45.733Z,5.70
2018-07-08T02:26:13.151Z,5.10
2018-07-08T02:28:40.624Z,6.12
2018-07-08T02:31:12.435Z,4.87
2018-07-08T02:33:40.043Z,5.53
2018-07-08T02:36:07.481Z,5.70
2018-07-08T02:38:34.946Z,4.72
2018-07-08T02:41:02.367Z,5.55
2018-07-08T02:43:29.843Z,5.25
2018-07-08T02:45:57.566Z,5.80
2018-07-08T02:48:32.315Z,7.37
2018-07-08T02:51:00.485Z,6.40
2018-07-08T02:53:28.086Z,6.22
2018-07-08T02:55:55.519Z,6.58
2018-07-08T02:58:23.213Z,7.65
2018-07-08T03:00:56.873Z,5.72
2018-07-08T03:03:24.684Z,6.70
2018-07-08T03:05:52.051Z,6.70
2018-07-08T03:08:19.467Z,6.08
2018-07-08T03:10:46.836Z,6.67
2018-07-08T03:13:14.241Z,7.00
2018-07-08T03:15:41.740Z,5.28
2018-07-08T03:18:11.187Z,5.50
2018-07-08T03:20:38.594Z,5.55
2018-07-08T03:23:10.043Z,5.33
2018-07-08T03:25:37.492Z,7.47
2018-07-08T03:28:04.934Z,6.50
2018-07-08T03:30:32.397Z,6.25
2018-07-08T03:32:59.767Z,6.05
2018-07-08T03:35:27.231Z,5.92
2018-07-08T03:37:54.640Z,6.40
2018-07-08T03:40:22.352Z,6.30
2018-07-08T03:42:50.386Z,6.35
2018-07-08T03:45:17.693Z,6.67
2018-07-08T03:47:45.012Z,6.55
2018-07-08T03:50:12.399Z,6.80
2018-07-08T03:52:44.522Z,6.55
2018-07-08T03:55:13.033Z,6.28
2018-07-08T03:57:40.382Z,8.18
2018-07-08T04:00:10.705Z,5.90
2018-07-08T04:02:38.535Z,6.22
2018-07-08T04:05:05.973Z,6.25
2018-07-08T04:07:33.398Z,6.42
2018-07-08T04:10:01.183Z,6.40
2018-07-08T04:12:33.236Z,5.60
2018-07-08T04:15:05.115Z,6.97
2018-07-08T04:17:32.658Z,5.83
2018-07-08T04:20:00.129Z,6.78
2018-07-08T04:22:27.600Z,5.53
2018-07-08T04:24:56.140Z,6.03
2018-07-08T04:27:24.065Z,7.25
2018-07-08T04:29:55.509Z,5.70
2018-07-08T04:32:22.947Z,5.55
2018-07-08T04:34:51.358Z,5.87
2018-07-08T04:37:19.124Z,5.20
2018-07-08T04:39:46.653Z,6.00
2018-07-08T04:42:14.005Z,5.55
2018-07-08T04:44:41.440Z,5.75
2018-07-08T04:47:08.859Z,5.20
2018-07-08T04:49:36.547Z,5.50
2018-07-08T04:52:03.960Z,4.85
2018-07-08T04:54:31.855Z,4.50
2018-07-08T04:56:59.215Z,5.47
2018-07-08T04:59:26.724Z,4.95
2018-07-08T05:01:54.203Z,5.15
2018-07-08T05:04:21.814Z,4.60
2018-07-08T05:06:50.170Z,4.22
2018-07-08T05:09:17.555Z,5.33
2018-07-08T05:11:44.930Z,4.70
2018-07-08T05:14:12.287Z,5.33
2018-07-08T05:16:40.408Z,4.90
2018-07-08T05:19:07.876Z,4.05
2018-07-08T05:21:35.838Z,4.10
2018-07-08T05:24:03.949Z,4.60
2018-07-08T05:26:32.208Z,5.97
2018-07-08T05:28:59.770Z,5.53
2018-07-08T05:31:27.878Z,4.37
2018-07-08T05:33:55.287Z,6.30
2018-07-08T05:36:22.709Z,4.65
2018-07-08T05:38:50.116Z,4.33
2018-07-08T05:41:17.519Z,4.30
2018-07-08T05:43:44.965Z,4.60
2018-07-08T05:46:12.442Z,4.53
2018-07-08T05:48:40.060Z,5.33
2018-07-08T05:51:07.496Z,4.30
2018-07-08T05:53:40.558Z,5.80
2018-07-08T05:56:07.925Z,4.40
2018-07-08T05:58:35.390Z,4.75
2018-07-08T06:01:03.420Z,3.70
2018-07-08T06:03:35.186Z,3.70
2018-07-08T06:06:02.720Z,4.17
2018-07-08T06:08:30.741Z,3.47
2018-07-08T06:10:58.178Z,3.90
2018-07-08T06:13:26.138Z,4.00
2018-07-08T06:15:53.612Z,3.80
2018-07-08T06:18:21.026Z,5.20
2018-07-08T06:20:48.485Z,3.60
2018-07-08T06:23:16.428Z,4.43
2018-07-08T06:25:43.851Z,4.70
2018-07-08T06:28:12.029Z,3.90
2018-07-08T06:30:40.536Z,3.23
2018-07-08T06:33:09.127Z,2.83
2018-07-08T06:35:40.984Z,2.97
2018-07-08T06:38:08.443Z,2.87
2018-07-08T06:40:36.492Z,2.80
2018-07-08T06:43:04.791Z,3.27
2018-07-08T06:45:32.853Z,2.47
2018-07-08T06:48:00.287Z,2.17
2018-07-08T06:50:28.095Z,2.50
2018-07-08T06:52:56.064Z,2.73
2018-07-08T06:55:23.527Z,2.60
2018-07-08T06:57:51.097Z,3.13
2018-07-08T07:00:18.537Z,2.60
2018-07-08T07:02:50.032Z,3.03
2018-07-08T07:05:17.768Z,2.53
2018-07-08T07:07:45.203Z,3.07
2018-07-08T07:10:12.643Z,3.40
2018-07-08T07:12:40.729Z,3.40
2018-07-08T07:15:08.718Z,3.30
2018-07-08T07:17:36.366Z,3.30
2018-07-08T07:20:03.849Z,2.63
2018-07-08T07:22:31.390Z,3.43
2018-07-08T07:24:59.565Z,2.67
2018-07-08T07:27:27.014Z,2.80
2018-07-08T07:29:54.388Z,3.20
2018-07-08T07:32:22.354Z,2.30
2018-07-08T07:34:49.814Z,2.47
2018-07-08T07:37:17.244Z,2.40
2018-07-08T07:39:44.602Z,2.40
2018-07-08T07:42:11.961Z,2.97
2018-07-08T07:44:39.307Z,4.47
2018-07-08T07:47:06.689Z,2.40
2018-07-08T07:49:34.082Z,3.40
2018-07-08T07:52:01.401Z,3.77
2018-07-08T07:54:28.759Z,2.53
2018-07-08T07:56:56.099Z,2.83
2018-07-08T07:59:23.466Z,3.00
2018-07-08T08:01:50.836Z,2.97
2018-07-08T08:04:18.206Z,2.87
2018-07-08T08:06:45.602Z,2.80
2018-07-08T08:09:12.936Z,3.10
2018-07-08T08:11:40.300Z,2.37
2018-07-08T08:14:07.661Z,2.70
2018-07-08T08:16:35.025Z,2.90
2018-07-08T08:19:02.994Z,3.03
2018-07-08T08:21:30.366Z,3.60
2018-07-08T08:23:58.397Z,2.73
2018-07-08T08:26:26.133Z,2.70
2018-07-08T08:28:53.460Z,3.23
2018-07-08T08:31:20.842Z,2.87
2018-07-08T08:33:53.664Z,2.83
2018-07-08T08:36:21.129Z,3.07
2018-07-08T08:38:48.629Z,1.93
2018-07-08T08:41:15.960Z,2.50
2018-07-08T08:43:43.352Z,2.43
2018-07-08T08:46:10.742Z,1.97
2018-07-08T08:48:38.069Z,2.30
2018-07-08T08:51:05.446Z,2.27
2018-07-08T08:53:33.123Z,2.20
2018-07-08T08:56:06.299Z,2.30
2018-07-08T08:58:33.666Z,1.80
2018-07-08T09:01:01.082Z,1.87
2018-07-08T09:03:28.595Z,2.20
2018-07-08T09:05:56.076Z,1.93
2018-07-08T09:08:23.770Z,1.83
2018-07-08T09:10:51.246Z,2.10
2018-07-08T09:13:23.044Z,2.00
2018-07-08T09:15:50.561Z,2.47
2018-07-08T09:18:18.149Z,2.20
2018-07-08T09:20:45.591Z,2.20
2018-07-08T09:23:13.136Z,2.17
2018-07-08T09:25:40.614Z,2.93
2018-07-08T09:28:07.984Z,1.93
2018-07-08T09:30:35.501Z,1.77
2018-07-08T09:33:02.878Z,2.03
2018-07-08T09:35:30.344Z,2.00
2018-07-08T09:37:57.853Z,1.60
2018-07-08T09:40:25.237Z,2.10
2018-07-08T09:42:52.809Z,1.70
2018-07-08T09:45:20.259Z,2.00
2018-07-08T09:47:47.607Z,1.63
2018-07-08T09:50:15.017Z,2.10
2018-07-08T09:52:42.531Z,2.10
2018-07-08T09:55:09.853Z,1.53
2018-07-08T09:57:37.299Z,1.90
2018-07-08T10:00:05.068Z,1.70
2018-07-08T10:02:32.487Z,1.97
2018-07-08T10:04:59.989Z,1.63
2018-07-08T10:07:27.240Z,1.70
2018-07-08T10:09:55.518Z,1.83
2018-07-08T10:12:23.551Z,1.70
2018-07-08T10:14:51.021Z,1.83
2018-07-08T10:17:18.531Z,1.50
2018-07-08T10:19:46.069Z,1.57
2018-07-08T10:22:13.545Z,1.50
2018-07-08T10:24:41.083Z,1.60
2018-07-08T10:27:14.098Z,1.20
2018-07-08T10:29:41.550Z,1.40
2018-07-08T10:32:08.930Z,1.40
2018-07-08T10:34:37.635Z,1.73
2018-07-08T10:37:05.201Z,1.30
2018-07-08T10:39:32.717Z,1.53
2018-07-08T10:42:00.120Z,1.40
2018-07-08T10:44:27.649Z,1.30
2018-07-08T10:46:55.119Z,1.73
2018-07-08T10:49:22.603Z,1.40
2018-07-08T10:51:49.983Z,1.40
2018-07-08T10:54:18.090Z,1.47
2018-07-08T10:56:45.913Z,1.60
2018-07-08T10:59:18.199Z,1.73
2018-07-08T11:01:47.054Z,1.77
2018-07-08T11:04:14.545Z,1.30
2018-07-08T11:06:41.969Z,1.20
2018-07-08T11:09:13.836Z,1.50
2018-07-08T11:11:41.262Z,1.50
2018-07-08T11:14:09.350Z,1.40
2018-07-08T11:26:21.824Z,1.50
2018-07-08T11:28:49.273Z,1.30
2018-07-08T11:31:16.819Z,1.57
2018-07-08T11:33:44.358Z,1.40
2018-07-08T11:36:13.065Z,1.43
2018-07-08T11:38:40.894Z,1.43
2018-07-08T11:41:09.036Z,2.10
2018-07-08T11:43:36.482Z,1.37
2018-07-08T11:46:03.907Z,1.50
2018-07-08T11:48:31.416Z,1.77
2018-07-08T11:50:58.908Z,1.30
2018-07-08T11:53:26.321Z,1.20
2018-07-08T11:55:53.951Z,1.20
2018-07-08T11:58:22.029Z,1.20
2018-07-08T12:00:49.456Z,1.30
2018-07-08T12:03:16.906Z,1.10
2018-07-08T12:05:44.421Z,1.43
2018-07-08T12:08:12.877Z,1.13
2018-07-08T12:10:40.471Z,1.10
2018-07-08T12:13:08.373Z,1.20
2018-07-08T12:15:35.861Z,1.40
2018-07-08T12:18:04.159Z,1.20
2018-07-08T12:20:31.958Z,1.40
2018-07-08T12:22:59.538Z,1.30
2018-07-08T12:25:27.091Z,1.37
2018-07-08T12:27:54.580Z,1.40
2018-07-08T12:30:25.994Z,1.70
2018-07-08T12:32:53.497Z,1.27
2018-07-08T12:35:20.958Z,1.27
2018-07-08T12:37:48.409Z,1.20
2018-07-08T12:40:15.925Z,1.10
2018-07-08T12:42:47.847Z,1.10
2018-07-08T12:45:15.477Z,1.03
2018-07-08T12:47:42.950Z,1.30
2018-07-08T12:50:14.979Z,1.33
2018-07-08T12:52:42.502Z,1.53
2018-07-08T12:55:09.989Z,1.50
2018-07-08T12:57:37.454Z,1.20
2018-07-08T13:00:04.857Z,1.30
2018-07-08T13:02:32.252Z,1.37
2018-07-08T13:04:59.677Z,1.20
2018-07-08T13:07:27.111Z,1.30
2018-07-08T13:09:54.700Z,1.43
2018-07-08T13:12:22.076Z,1.40
2018-07-08T13:14:49.556Z,1.20
2018-07-08T13:17:17.010Z,1.30
2018-07-08T13:19:44.488Z,1.60
2018-07-08T13:22:12.411Z,1.50
2018-07-08T13:24:39.837Z,1.60
2018-07-08T13:27:07.246Z,1.40
2018-07-08T13:29:35.454Z,1.37
2018-07-08T13:32:02.929Z,1.50
2018-07-08T13:34:30.340Z,1.00
2018-07-08T13:36:57.767Z,1.40
2018-07-08T13:39:25.182Z,1.50
2018-07-08T13:41:52.666Z,1.63
2018-07-08T13:44:20.089Z,1.50
2018-07-08T13:46:47.746Z,1.30
2018-07-08T13:49:15.223Z,1.87
2018-07-08T13:51:46.459Z,1.40
2018-07-08T13:54:13.845Z,1.30
2018-07-08T13:56:41.312Z,1.50
2018-07-08T13:59:09.079Z,1.37
2018-07-08T14:01:36.681Z,1.40
2018-07-08T14:04:04.191Z,1.33
2018-07-08T14:06:31.604Z,1.50
2018-07-08T14:09:03.983Z,1.60
2018-07-08T14:11:31.458Z,1.40
2018-07-08T14:14:00.833Z,1.63
2018-07-08T14:16:28.392Z,1.30
2018-07-08T14:18:56.955Z,1.57
2018-07-08T14:21:24.574Z,1.73
2018-07-08T14:23:57.343Z,1.90
2018-07-08T14:26:24.999Z,1.83
2018-07-08T14:28:53.158Z,1.80
2018-07-08T14:31:20.673Z,1.70
2018-07-08T14:33:48.773Z,1.60
2018-07-08T14:36:16.426Z,1.60
2018-07-08T14:38:43.968Z,1.80
2018-07-08T14:41:11.973Z,1.47
2018-07-08T14:43:40.094Z,1.60
2018-07-08T14:46:07.616Z,1.53
2018-07-08T14:48:35.119Z,1.63
2018-07-08T14:51:02.545Z,1.67
2018-07-08T14:53:36.339Z,1.77
2018-07-08T14:56:03.855Z,1.93
2018-07-08T14:58:31.543Z,1.50
2018-07-08T15:00:59.238Z,1.60
2018-07-08T15:03:26.681Z,1.40
2018-07-08T15:05:54.141Z,1.37
2018-07-08T15:08:21.584Z,1.60
2018-07-08T15:10:49.000Z,1.60
2018-07-08T15:13:16.380Z,1.40
2018-07-08T15:15:43.839Z,1.40
2018-07-08T15:18:11.181Z,1.30
2018-07-08T15:20:38.597Z,1.60
2018-07-08T15:23:06.033Z,1.30
2018-07-08T15:25:33.423Z,2.40
2018-07-08T15:28:00.867Z,1.80
2018-07-08T15:30:28.248Z,2.17
2018-07-08T15:32:55.719Z,1.90
2018-07-08T15:35:23.055Z,1.70
2018-07-08T15:37:50.426Z,1.73
2018-07-08T15:40:17.860Z,1.80
2018-07-08T15:42:45.336Z,1.77
2018-07-08T15:45:12.803Z,1.80
2018-07-08T15:47:40.266Z,1.60
2018-07-08T15:50:07.562Z,2.23
2018-07-08T15:52:35.015Z,2.10
2018-07-08T15:55:02.416Z,2.20
2018-07-08T15:57:29.861Z,1.90
2018-07-08T15:59:57.362Z,1.57
2018-07-08T16:02:24.803Z,1.57
2018-07-08T16:04:52.202Z,1.87
2018-07-08T16:07:19.654Z,2.03
2018-07-08T16:09:47.057Z,1.60
2018-07-08T16:12:14.495Z,1.60
2018-07-08T16:14:41.912Z,1.57
2018-07-08T16:17:09.282Z,1.80
2018-07-08T16:19:36.683Z,2.10
2018-07-08T16:22:04.121Z,1.70
2018-07-08T16:24:31.624Z,1.80
2018-07-08T16:26:58.998Z,2.10
2018-07-08T16:29:26.605Z,1.60
2018-07-08T16:31:54.118Z,2.30
2018-07-08T16:34:22.150Z,1.80
2018-07-08T16:36:49.549Z,2.00
2018-07-08T16:39:17.031Z,1.50
2018-07-08T16:41:44.509Z,1.90
2018-07-08T16:44:11.952Z,2.23
2018-07-08T16:46:39.324Z,1.50
2018-07-08T16:49:06.759Z,1.73
2018-07-08T16:51:34.105Z,3.20
2018-07-08T16:54:01.519Z,1.90
2018-07-08T16:56:28.925Z,1.87
2018-07-08T16:58:56.527Z,1.77
2018-07-08T17:01:24.023Z,1.73
2018-07-08T17:03:51.490Z,2.10
2018-07-08T17:06:18.949Z,2.10
2018-07-08T17:08:46.423Z,1.83
2018-07-08T17:11:13.840Z,1.80
2018-07-08T17:13:41.366Z,4.20
2018-07-08T17:16:08.835Z,2.63
2018-07-08T17:18:36.618Z,2.70
2018-07-08T17:21:04.479Z,2.17
2018-07-08T17:23:32.325Z,2.27
2018-07-08T17:26:00.035Z,1.87
2018-07-08T17:28:27.436Z,1.60
2018-07-08T17:30:55.319Z,1.77
2018-07-08T17:33:23.627Z,1.53
2018-07-08T17:35:51.055Z,1.90
2018-07-08T17:38:18.775Z,1.90
2018-07-08T17:40:46.269Z,2.40
2018-07-08T17:43:17.820Z,1.97
2018-07-08T17:45:45.387Z,2.13
2018-07-08T17:48:13.716Z,2.10
2018-07-08T17:50:41.277Z,2.00
2018-07-08T17:53:08.824Z,1.90
2018-07-08T17:55:36.365Z,1.80
2018-07-08T18:07:48.955Z,2.17
2018-07-08T18:10:16.438Z,1.77
2018-07-08T18:12:44.277Z,1.70
2018-07-08T18:15:12.172Z,2.87
2018-07-08T18:17:39.997Z,1.70
2018-07-08T18:20:07.743Z,2.00
2018-07-08T18:22:35.284Z,2.30
2018-07-08T18:25:02.848Z,2.00
2018-07-08T18:27:35.672Z,1.87
2018-07-08T18:30:03.349Z,2.27
2018-07-08T18:32:31.462Z,1.90
2018-07-08T18:34:59.887Z,1.97
2018-07-08T18:37:29.488Z,1.90
2018-07-08T18:40:01.984Z,1.87
2018-07-08T18:42:30.203Z,1.80
2018-07-08T18:44:57.790Z,2.30
2018-07-08T18:47:30.412Z,2.63
2018-07-08T18:49:59.457Z,1.87
2018-07-08T18:52:28.616Z,2.27
2018-07-08T18:54:56.355Z,1.90
2018-07-08T18:57:28.414Z,2.20
2018-07-08T18:59:56.531Z,2.23
2018-07-08T19:02:24.322Z,2.10
2018-07-08T19:04:57.016Z,1.90
2018-07-08T19:07:29.364Z,2.53
2018-07-08T19:09:58.630Z,1.80
2018-07-08T19:12:29.731Z,1.80
2018-07-08T19:14:58.723Z,2.23
2018-07-08T19:17:26.840Z,1.97
2018-07-08T19:19:59.583Z,1.90
2018-07-08T19:22:27.808Z,2.20
2018-07-08T19:24:55.930Z,1.97
2018-07-08T19:27:23.397Z,2.03
2018-07-08T19:30:00.326Z,2.07
2018-07-08T19:32:28.450Z,2.00
2018-07-08T19:34:56.166Z,2.03
2018-07-08T19:37:24.120Z,2.00
2018-07-08T19:39:51.756Z,2.00
2018-07-08T19:42:19.393Z,2.40
2018-07-08T19:44:51.189Z,2.03
2018-07-08T19:47:19.421Z,2.43
2018-07-08T19:49:46.907Z,2.30
2018-07-08T19:52:14.898Z,2.20
2018-07-08T19:54:43.895Z,2.27
2018-07-08T19:57:11.460Z,2.43
2018-07-08T19:59:39.068Z,2.30
2018-07-08T20:02:06.601Z,2.27
2018-07-08T20:04:34.801Z,2.63
2018-07-08T20:07:02.847Z,2.53
2018-07-08T20:09:31.021Z,2.13
2018-07-08T20:11:59.027Z,2.10
2018-07-08T20:14:26.539Z,2.37
2018-07-08T20:16:55.355Z,2.60
2018-07-08T20:19:23.641Z,2.60
2018-07-08T20:21:51.530Z,3.00
2018-07-08T20:24:19.024Z,2.67
2018-07-08T20:26:46.493Z,2.37
2018-07-08T20:29:14.025Z,2.50
2018-07-08T20:31:42.074Z,2.73
2018-07-08T20:34:09.671Z,2.53
2018-07-08T20:36:37.990Z,2.60
2018-07-08T20:39:06.840Z,2.53
2018-07-08T20:41:34.900Z,2.70
2018-07-08T20:44:03.281Z,2.87
2018-07-08T20:46:30.689Z,2.67
2018-07-08T20:48:58.177Z,2.87
2018-07-08T20:51:25.763Z,3.20
2018-07-08T20:53:53.288Z,2.53
2018-07-08T20:56:21.435Z,2.93
2018-07-08T20:58:48.903Z,3.03
2018-07-08T21:01:16.243Z,2.57
2018-07-08T21:03:43.729Z,3.00
2018-07-08T21:06:11.213Z,3.10
2018-07-08T21:08:38.912Z,2.80
2018-07-08T21:11:06.326Z,2.80
2018-07-08T21:13:37.964Z,2.60
2018-07-08T21:16:05.576Z,2.80
2018-07-08T21:18:34.236Z,2.70
2018-07-08T21:21:01.750Z,2.50
2018-07-08T21:23:29.157Z,3.50
2018-07-08T21:25:57.058Z,3.30
2018-07-08T21:28:24.416Z,3.53
2018-07-08T21:30:51.836Z,2.90
2018-07-08T21:33:19.724Z,2.67
2018-07-08T21:35:47.459Z,2.77
2018-07-08T21:38:14.857Z,3.40
2018-07-08T21:40:42.332Z,2.77
2018-07-08T21:43:11.206Z,3.10
2018-07-08T21:45:39.236Z,3.03
2018-07-08T21:48:06.692Z,2.80
2018-07-08T21:50:34.626Z,3.60
2018-07-08T22:02:47.076Z,3.33
2018-07-08T22:05:14.534Z,2.90
2018-07-08T22:07:47.319Z,3.40
2018-07-08T22:10:14.745Z,3.10
2018-07-08T22:12:42.420Z,3.20
2018-07-08T22:15:09.915Z,3.00
2018-07-08T22:17:38.786Z,3.67
2018-07-08T22:20:11.569Z,3.27
2018-07-08T22:22:45.357Z,3.75
2018-07-08T22:25:13.398Z,3.05
2018-07-08T22:27:40.824Z,3.10
2018-07-08T22:30:08.575Z,3.37
2018-07-08T22:32:35.968Z,3.45
2018-07-08T22:35:07.873Z,2.93
2018-07-08T22:37:40.950Z,3.37
2018-07-08T22:40:09.000Z,3.22
2018-07-08T22:42:36.700Z,2.83
2018-07-08T22:45:05.205Z,3.15
2018-07-08T22:47:33.218Z,2.93
2018-07-08T22:50:00.595Z,3.50
2018-07-08T22:52:27.987Z,3.55
2018-07-08T22:54:59.873Z,3.40
2018-07-08T22:57:27.286Z,3.60
2018-07-08T23:00:00.343Z,3.37
2018-07-08T23:02:33.494Z,3.67
2018-07-08T23:05:01.860Z,3.67
2018-07-08T23:07:29.436Z,3.70
2018-07-08T23:09:56.934Z,4.25
2018-07-08T23:12:24.357Z,3.73
2018-07-08T23:14:51.743Z,3.55
2018-07-08T23:17:27.633Z,3.90
2018-07-08T23:19:55.663Z,3.60
2018-07-08T23:22:27.575Z,3.23
2018-07-08T23:24:55.801Z,3.98
2018-07-08T23:27:23.779Z,3.65
2018-07-08T23:29:52.428Z,4.12
2018-07-08T23:32:23.880Z,4.05
2018-07-08T23:44:37.705Z,4.65
2018-07-08T23:47:05.534Z,4.03
2018-07-08T23:49:32.906Z,4.55
2018-07-08T23:52:00.265Z,4.12
2018-07-08T23:54:27.747Z,3.80
2018-07-08T23:56:55.102Z,4.12
2018-07-08T23:59:22.694Z,5.10
